createdAt,value
2023-02-19T00:02:28.029Z,100041.95
2023-02-19T00:05:56.109Z,100040.08
2023-02-19T00:09:23.476Z,100040.30
2023-02-19T00:12:52.315Z,100041.95
2023-02-19T00:16:22.450Z,100035.54
2023-02-19T00:19:49.967Z,100037.35
2023-02-19T00:23:17.744Z,100035.86
2023-02-19T00:26:46.890Z,100036.20
2023-02-19T00:30:15.251Z,100037.67
2023-02-19T00:33:42.288Z,100044.33
2023-02-19T00:37:09.137Z,100050.66
2023-02-19T00:40:35.793Z,100055.79
2023-02-19T00:44:16.736Z,100056.05
2023-02-19T00:47:44.460Z,100059.91
2023-02-19T00:51:12.072Z,100057.32
2023-02-19T00:54:38.970Z,100053.05
2023-02-19T00:58:08.404Z,100048.48
2023-02-19T01:01:35.197Z,100045.71
2023-02-19T01:05:04.517Z,100044.95
2023-02-19T01:08:32.896Z,100040.58
2023-02-19T01:12:00.802Z,100038.69
2023-02-19T01:15:27.948Z,100038.70
2023-02-19T01:18:54.860Z,100040.27
2023-02-19T01:22:22.169Z,100035.33
2023-02-19T01:25:49.154Z,100029.49
2023-02-19T01:29:15.843Z,100028.84
2023-02-19T01:32:45.085Z,100035.95
2023-02-19T01:36:13.786Z,100035.18
2023-02-19T01:39:41.120Z,100035.30
2023-02-19T01:43:16.521Z,100029.25
2023-02-19T01:46:44.689Z,100032.93
2023-02-19T01:50:15.065Z,100037.20
2023-02-19T01:53:48.950Z,100039.05
2023-02-19T01:57:18.706Z,100041.69
2023-02-19T02:00:46.717Z,100038.73
2023-02-19T02:04:16.509Z,100039.72
2023-02-19T02:08:02.024Z,100041.24
2023-02-19T02:11:30.985Z,100034.31
2023-02-19T02:14:59.636Z,100029.53
2023-02-19T02:18:36.885Z,100029.55
2023-02-19T02:22:19.854Z,100024.44
2023-02-19T02:26:19.746Z,100012.23
2023-02-19T02:30:08.907Z,100015.73
2023-02-19T02:33:43.979Z,100009.15
2023-02-19T02:37:14.576Z,100006.98
2023-02-19T02:40:44.659Z,99993.36
2023-02-19T02:44:12.610Z,99988.30
2023-02-19T02:47:43.378Z,99984.52
2023-02-19T02:51:22.181Z,99978.10
2023-02-19T02:55:04.915Z,99973.64
2023-02-19T02:58:35.824Z,99971.10
2023-02-19T03:02:14.805Z,99972.21
2023-02-19T03:05:54.612Z,99965.60
2023-02-19T03:09:30.478Z,99963.08
2023-02-19T03:13:33.491Z,99961.58
2023-02-19T03:17:24.032Z,99957.38
2023-02-19T03:20:56.515Z,99965.03
2023-02-19T03:24:44.417Z,99954.33
2023-02-19T03:28:16.480Z,99961.45
2023-02-19T03:31:47.759Z,99951.34
2023-02-19T03:35:18.991Z,99956.05
2023-02-19T03:38:50.660Z,99957.41
2023-02-19T03:42:31.897Z,99952.27
2023-02-19T03:46:08.523Z,99959.08
2023-02-19T03:49:44.029Z,99957.52
2023-02-19T03:53:19.821Z,99949.55
2023-02-19T03:56:54.657Z,99951.00
2023-02-19T04:00:29.925Z,99956.67
2023-02-19T04:04:03.905Z,99955.26
2023-02-19T04:07:34.801Z,99954.19
2023-02-19T04:11:02.002Z,99948.80
2023-02-19T04:14:39.714Z,99948.48
2023-02-19T04:18:11.628Z,99943.20
2023-02-19T04:21:41.853Z,99943.77
2023-02-19T04:25:10.199Z,99945.88
2023-02-19T04:28:37.793Z,99943.00
2023-02-19T04:32:05.231Z,99948.88
2023-02-19T04:35:32.933Z,99950.52
2023-02-19T04:39:00.124Z,99949.80
2023-02-19T04:42:27.516Z,99955.30
2023-02-19T04:45:55.508Z,99951.73
2023-02-19T04:49:22.377Z,99949.89
2023-02-19T04:52:49.541Z,99955.43
2023-02-19T04:56:17.886Z,99959.08
2023-02-19T04:59:45.090Z,99963.79
2023-02-19T05:03:11.953Z,99968.45
2023-02-19T05:06:39.588Z,99966.98
2023-02-19T05:10:06.289Z,99964.55
2023-02-19T05:13:35.591Z,99966.89
2023-02-19T05:17:02.510Z,99965.64
2023-02-19T05:20:29.270Z,99964.21
2023-02-19T05:23:56.048Z,99963.64
2023-02-19T05:27:23.486Z,99960.41
2023-02-19T05:30:52.512Z,99970.57
2023-02-19T05:34:19.260Z,99970.05
2023-02-19T05:37:45.723Z,99970.59
2023-02-19T05:41:15.994Z,99970.63
2023-02-19T05:44:42.594Z,99974.38
2023-02-19T05:48:11.879Z,99977.95
2023-02-19T05:51:38.677Z,99977.80
2023-02-19T05:55:06.252Z,99979.91
2023-02-19T05:58:33.574Z,99985.89
2023-02-19T06:02:00.477Z,99983.84
2023-02-19T06:05:27.713Z,99987.48
2023-02-19T06:08:55.821Z,99990.09
2023-02-19T06:12:22.638Z,99989.84
2023-02-19T06:15:49.716Z,99997.69
2023-02-19T06:19:16.672Z,100000.20
2023-02-19T06:22:43.262Z,99996.77
2023-02-19T06:26:15.001Z,100001.29
2023-02-19T06:29:42.051Z,100001.45
2023-02-19T06:33:09.077Z,100003.83
2023-02-19T06:36:36.107Z,100003.76
2023-02-19T06:40:04.684Z,100002.30
2023-02-19T06:43:32.939Z,100005.73
2023-02-19T06:46:59.721Z,100011.42
2023-02-19T06:50:26.958Z,100014.92
2023-02-19T06:53:53.785Z,100015.44
2023-02-19T06:57:21.091Z,100019.59
2023-02-19T07:00:48.770Z,100016.05
2023-02-19T07:04:17.597Z,100018.92
2023-02-19T07:07:47.003Z,100022.36
2023-02-19T07:11:13.816Z,100020.85
2023-02-19T07:14:41.213Z,100025.70
2023-02-19T07:18:10.675Z,100028.21
2023-02-19T07:21:39.244Z,100028.35
2023-02-19T07:25:06.436Z,100033.81
2023-02-19T07:28:34.259Z,100037.36
2023-02-19T07:32:01.225Z,100040.46
2023-02-19T07:35:28.575Z,100039.53
2023-02-19T07:39:00.518Z,100045.64
2023-02-19T07:42:28.012Z,100051.48
2023-02-19T07:45:55.955Z,100046.93
2023-02-19T07:49:24.810Z,100047.90
2023-02-19T07:52:51.755Z,100054.78
2023-02-19T07:56:19.917Z,100055.29
2023-02-19T07:59:47.244Z,100071.08
2023-02-19T08:03:16.689Z,100074.09
2023-02-19T08:06:45.804Z,100073.41
2023-02-19T08:10:36.042Z,100074.29
2023-02-19T08:14:04.507Z,100084.35
2023-02-19T08:17:33.642Z,100086.79
2023-02-19T08:21:08.975Z,100088.94
2023-02-19T08:24:38.464Z,100093.77
2023-02-19T08:28:06.656Z,100098.84
2023-02-19T08:31:35.420Z,100102.00
2023-02-19T08:35:04.694Z,100106.59
2023-02-19T08:38:34.974Z,100107.77
2023-02-19T08:42:01.846Z,100112.91
2023-02-19T08:45:29.282Z,100113.52
2023-02-19T08:48:56.457Z,100116.30
2023-02-19T08:52:23.606Z,100116.58
2023-02-19T08:55:51.654Z,100122.30
2023-02-19T08:59:20.699Z,100119.86
2023-02-19T09:02:50.920Z,100126.16
2023-02-19T09:06:23.786Z,100128.41
2023-02-19T09:09:51.252Z,100133.91
2023-02-19T09:13:17.930Z,100138.74
2023-02-19T09:16:44.778Z,100141.75
2023-02-19T09:20:15.479Z,100142.73
2023-02-19T09:23:42.546Z,100148.52
2023-02-19T09:27:10.354Z,100146.87
2023-02-19T09:30:38.586Z,100148.01
2023-02-19T09:34:08.787Z,100151.49
2023-02-19T09:37:36.350Z,100157.79
2023-02-19T09:41:16.256Z,100157.38
2023-02-19T09:44:45.945Z,100165.27
2023-02-19T09:48:14.980Z,100166.11
2023-02-19T09:51:45.101Z,100169.36
2023-02-19T09:55:20.252Z,100176.04
2023-02-19T09:58:50.614Z,100177.72
2023-02-19T10:02:21.203Z,100186.88
2023-02-19T10:05:49.004Z,100188.48
2023-02-19T10:09:26.964Z,100188.63
2023-02-19T10:12:57.549Z,100196.19
2023-02-19T10:16:27.554Z,100197.76
2023-02-19T10:19:55.752Z,100193.02
2023-02-19T10:23:22.774Z,100194.08
2023-02-19T10:26:51.862Z,100195.46
2023-02-19T10:30:26.250Z,100197.33
2023-02-19T10:33:55.050Z,100195.61
2023-02-19T10:37:21.931Z,100207.52
2023-02-19T10:40:50.012Z,100215.29
2023-02-19T10:44:22.092Z,100218.61
2023-02-19T10:47:56.028Z,100224.73
2023-02-19T10:51:37.367Z,100222.11
2023-02-19T10:55:22.669Z,100220.01
2023-02-19T10:58:49.461Z,100223.79
2023-02-19T11:02:22.160Z,100225.68
2023-02-19T11:06:01.796Z,100225.27
2023-02-19T11:09:34.148Z,100228.32
2023-02-19T11:13:04.713Z,100237.98
2023-02-19T11:16:42.637Z,100243.38
2023-02-19T11:20:16.766Z,100242.95
2023-02-19T11:23:49.525Z,100242.05
2023-02-19T11:27:23.075Z,100242.98
2023-02-19T11:30:52.677Z,100253.54
2023-02-19T11:34:35.949Z,100257.38
2023-02-19T11:38:03.715Z,100260.75
2023-02-19T11:41:57.534Z,100257.17
2023-02-19T11:45:38.586Z,100254.55
2023-02-19T11:49:19.258Z,100264.84
2023-02-19T11:52:58.103Z,100267.59
2023-02-19T11:56:34.793Z,100270.31
2023-02-19T12:00:17.487Z,100268.94
2023-02-19T12:04:05.017Z,100269.16
2023-02-19T12:07:56.599Z,100264.41
2023-02-19T12:11:40.137Z,100266.34
2023-02-19T12:15:26.773Z,100271.82
2023-02-19T12:19:16.660Z,100269.90
2023-02-19T12:22:53.312Z,100271.95
2023-02-19T12:26:28.670Z,100276.17
2023-02-19T12:30:18.529Z,100287.63
2023-02-19T12:34:02.532Z,100286.14
2023-02-19T12:37:42.856Z,100286.23
2023-02-19T12:41:23.335Z,100294.91
2023-02-19T12:44:54.948Z,100297.82
2023-02-19T12:48:34.344Z,100300.88
2023-02-19T12:52:08.545Z,100313.06
2023-02-19T12:55:43.335Z,100319.27
2023-02-19T12:59:16.791Z,100327.23
2023-02-19T13:02:48.235Z,100328.42
2023-02-19T13:06:26.134Z,100330.70
2023-02-19T13:10:01.059Z,100325.70
2023-02-19T13:13:33.829Z,100330.89
2023-02-19T13:17:09.902Z,100334.54
2023-02-19T13:20:41.622Z,100333.69
2023-02-19T13:24:12.991Z,100337.60
2023-02-19T13:27:59.516Z,100337.98
2023-02-19T13:31:47.187Z,100341.09
2023-02-19T13:35:30.410Z,100339.84
2023-02-19T13:39:01.288Z,100339.05
2023-02-19T13:42:33.931Z,100339.17
2023-02-19T13:46:04.396Z,100346.73
2023-02-19T13:49:43.680Z,100346.17
2023-02-19T13:53:53.103Z,100351.13
2023-02-19T13:57:32.412Z,100354.89
2023-02-19T14:01:01.592Z,100357.36
2023-02-19T14:04:49.224Z,100370.27
2023-02-19T14:08:53.074Z,100380.20
2023-02-19T14:12:32.081Z,100379.80
2023-02-19T14:15:59.739Z,100378.84
2023-02-19T14:19:59.785Z,100385.80
2023-02-19T14:23:39.165Z,100386.54
2023-02-19T14:27:06.566Z,100400.58
2023-02-19T14:30:45.101Z,100406.90
2023-02-19T14:34:22.608Z,100406.60
2023-02-19T14:37:51.377Z,100407.73
2023-02-19T14:41:20.778Z,100417.02
2023-02-19T14:44:53.728Z,100429.86
2023-02-19T14:48:26.048Z,100429.59
2023-02-19T14:51:57.013Z,100434.96
2023-02-19T14:55:28.688Z,100439.47
2023-02-19T15:02:27.599Z,100443.66
2023-02-19T15:05:59.921Z,100448.20
2023-02-19T15:09:36.552Z,100456.02
2023-02-19T15:13:06.598Z,100455.71
2023-02-19T15:16:35.983Z,100466.10
2023-02-19T15:20:06.768Z,100472.48
2023-02-19T15:23:36.188Z,100483.77
2023-02-19T15:27:03.510Z,100498.62
2023-02-19T15:30:31.615Z,100498.52
2023-02-19T15:33:59.022Z,100507.63
2023-02-19T15:37:27.327Z,100505.84
2023-02-19T15:40:56.222Z,100504.92
2023-02-19T15:44:33.870Z,100511.51
2023-02-19T15:48:10.520Z,100513.05
2023-02-19T15:51:42.972Z,100517.27
2023-02-19T15:55:35.718Z,100527.10
2023-02-19T15:59:08.103Z,100530.98
2023-02-19T16:02:36.168Z,100537.70
2023-02-19T16:06:06.860Z,100544.94
2023-02-19T16:09:38.605Z,100549.45
2023-02-19T16:13:09.536Z,100549.24
2023-02-19T16:16:42.438Z,100551.14
2023-02-19T16:20:21.700Z,100554.14
2023-02-19T16:23:54.933Z,100560.16
2023-02-19T16:27:32.777Z,100567.45
2023-02-19T16:31:04.883Z,100563.55
2023-02-19T16:34:47.191Z,100571.83
2023-02-19T16:38:17.957Z,100577.74
2023-02-19T16:42:19.657Z,100589.81
2023-02-19T16:45:47.498Z,100606.22
2023-02-19T16:49:15.059Z,100611.74
2023-02-19T16:52:54.234Z,100629.98
2023-02-19T16:56:23.305Z,100642.83
2023-02-19T16:59:50.532Z,100650.34
2023-02-19T17:03:20.618Z,100655.41
2023-02-19T17:06:48.407Z,100666.29
2023-02-19T17:10:18.726Z,100658.79
2023-02-19T17:13:47.391Z,100655.27
2023-02-19T17:17:13.750Z,100647.84
2023-02-19T17:20:42.069Z,100657.54
2023-02-19T17:24:09.552Z,100661.42
2023-02-19T17:27:36.570Z,100661.17
2023-02-19T17:31:04.029Z,100658.00
2023-02-19T17:34:31.026Z,100662.69
2023-02-19T17:37:58.182Z,100663.77
2023-02-19T17:41:24.989Z,100669.84
2023-02-19T17:44:53.890Z,100671.29
2023-02-19T17:48:21.099Z,100676.14
2023-02-19T17:51:48.825Z,100680.48
2023-02-19T17:55:18.687Z,100687.58
2023-02-19T17:58:46.541Z,100688.31
2023-02-19T18:02:13.327Z,100691.80
2023-02-19T18:05:41.473Z,100694.93
2023-02-19T18:09:08.764Z,100695.50
2023-02-19T18:12:35.729Z,100698.80
2023-02-19T18:16:03.046Z,100703.80
2023-02-19T18:19:32.919Z,100705.55
2023-02-19T18:23:00.231Z,100714.52
2023-02-19T18:26:28.453Z,100717.83
2023-02-19T18:29:59.490Z,100724.39
2023-02-19T18:33:29.810Z,100723.56
2023-02-19T18:36:57.655Z,100718.48
2023-02-19T18:40:26.820Z,100718.70
2023-02-19T18:43:54.205Z,100719.59
2023-02-19T18:47:25.432Z,100712.42
2023-02-19T18:50:55.928Z,100721.02
2023-02-19T18:54:30.054Z,100716.10
2023-02-19T18:57:59.885Z,100719.38
2023-02-19T19:01:27.270Z,100722.64
2023-02-19T19:04:58.829Z,100717.50
2023-02-19T19:08:26.025Z,100716.48
2023-02-19T19:11:55.812Z,100717.02
2023-02-19T19:15:24.955Z,100715.17
2023-02-19T19:18:52.737Z,100714.70
2023-02-19T19:22:23.077Z,100715.44
2023-02-19T19:25:50.676Z,100707.58
2023-02-19T19:29:19.363Z,100705.92
2023-02-19T19:32:53.731Z,100711.59
2023-02-19T19:36:24.420Z,100715.23
2023-02-19T19:39:52.264Z,100713.18
2023-02-19T19:43:21.365Z,100711.49
2023-02-19T19:46:48.995Z,100715.09
2023-02-19T19:50:18.384Z,100705.69
2023-02-19T19:53:53.283Z,100705.20
2023-02-19T19:57:22.612Z,100706.55
2023-02-19T20:00:49.630Z,100706.02
2023-02-19T20:04:17.730Z,100707.56
2023-02-19T20:07:44.893Z,100709.60
2023-02-19T20:11:12.092Z,100710.77
2023-02-19T20:14:44.738Z,100707.85
2023-02-19T20:18:13.410Z,100703.02
2023-02-19T20:21:40.332Z,100699.27
2023-02-19T20:25:09.466Z,100696.90
2023-02-19T20:28:47.069Z,100687.53
2023-02-19T20:32:19.204Z,100695.41
2023-02-19T20:35:49.693Z,100701.62
2023-02-19T20:39:18.801Z,100707.98
2023-02-19T20:42:52.906Z,100716.02
2023-02-19T20:46:20.294Z,100715.88
2023-02-19T20:49:53.744Z,100716.58
2023-02-19T20:53:21.030Z,100716.42
2023-02-19T20:56:53.566Z,100715.06
2023-02-19T21:00:23.545Z,100709.76
2023-02-19T21:03:52.394Z,100716.25
2023-02-19T21:07:29.984Z,100721.56
2023-02-19T21:11:00.894Z,100728.40
2023-02-19T21:14:28.155Z,100732.52
2023-02-19T21:17:55.816Z,100728.91
2023-02-19T21:21:26.659Z,100726.69
2023-02-19T21:24:54.649Z,100735.44
2023-02-19T21:28:24.194Z,100738.84
2023-02-19T21:31:58.126Z,100736.10
2023-02-19T21:35:26.289Z,100737.64
2023-02-19T21:38:53.803Z,100744.48
2023-02-19T21:42:22.250Z,100737.31
2023-02-19T21:45:49.265Z,100739.35
2023-02-19T21:49:17.360Z,100740.21
2023-02-19T21:52:46.819Z,100737.14
2023-02-19T21:56:16.267Z,100744.00
2023-02-19T21:59:45.184Z,100746.71
2023-02-19T22:03:18.081Z,100748.60
2023-02-19T22:06:47.893Z,100736.77
2023-02-19T22:10:19.244Z,100737.24
2023-02-19T22:13:46.892Z,100738.39
2023-02-19T22:17:15.708Z,100741.10
2023-02-19T22:20:43.141Z,100728.59
2023-02-19T22:24:19.806Z,100725.47
2023-02-19T22:27:49.587Z,100720.14
2023-02-19T22:31:17.874Z,100714.67
2023-02-19T22:34:44.782Z,100714.15
2023-02-19T22:38:12.322Z,100712.62
2023-02-19T22:41:45.482Z,100715.03
2023-02-19T22:45:14.936Z,100713.88
2023-02-19T22:48:42.867Z,100717.65
2023-02-19T22:52:17.177Z,100727.78
2023-02-19T22:55:45.458Z,100732.09
2023-02-19T22:59:13.959Z,100730.05
2023-02-19T23:02:42.855Z,100733.85
2023-02-19T23:06:12.407Z,100740.55
2023-02-19T23:09:40.664Z,100741.58
2023-02-19T23:13:12.376Z,100741.23
2023-02-19T23:16:39.626Z,100735.60
2023-02-19T23:20:08.368Z,100732.20
2023-02-19T23:23:36.944Z,100728.27
2023-02-19T23:27:03.950Z,100733.91
2023-02-19T23:30:30.902Z,100725.70
2023-02-19T23:33:57.854Z,100722.28
2023-02-19T23:37:25.071Z,100723.83
2023-02-19T23:40:52.645Z,100724.00
2023-02-19T23:44:20.891Z,100725.36
2023-02-19T23:47:48.432Z,100721.61
2023-02-19T23:51:15.745Z,100719.73
2023-02-19T23:54:43.574Z,100716.66
2023-02-19T23:58:10.496Z,100721.45
